Derby Field Lovelock US
ICAO: KLOL
IATA: LOL
Category: Medium
Scheduled Services: No

Elevation: 3904 ft
TransAlt. 18000 ft.

Airport Communications:
ASOS:120.675
OAKLAND CNTR:128.8
RENO RDO:122.4
CTAF/UNICOM:122.8

KLOL Zoom In..

Runways:

(A) RW 02 length 5529 ft width 75 ft
---- / hdg 16

(B) RW 08 length 4931 ft width 75 ft
---- / hdg 76

(C) RW 20 length 5529 ft width 75 ft
---- / hdg 196

(D) RW 26 length 4931 ft width 75 ft
---- / hdg 256

Location; KLOL
Day. 26 / Time. 03.53 Zulu
* Altimeter: 29.95
* Temperature: 14° c. 57.2°f.
* Wind from: 310° Speed 13 kn.
Dewpoint: 05° c.
Visibility: 10 Statute Miles.
Clouds: Clear (automated report).

KLOL 260353Z AUTO 31013KT 10SM CLR 14/05 A2995 RMK AO2 SLP117 T01440050


Wind From 310°
Speed 13 kn.

 
 
jpsmedia.com for Web Design SOUNDCLOUD worldairports.se 2018   terms of use